sensor_id;sensor_type;location;lat;lon;timestamp;temperature;humidity
8463;DHT22;4268;52.506;13.462;2023-09-07T00:01:10;20.10;99.30
8463;DHT22;4268;52.506;13.462;2023-09-07T00:03:36;19.90;99.20
8463;DHT22;4268;52.506;13.462;2023-09-07T00:06:06;19.90;99.20
8463;DHT22;4268;52.506;13.462;2023-09-07T00:08:32;20.10;99.40
8463;DHT22;4268;52.506;13.462;2023-09-07T00:11:03;19.90;99.30
8463;DHT22;4268;52.506;13.462;2023-09-07T00:13:29;20.10;99.50
8463;DHT22;4268;52.506;13.462;2023-09-07T00:15:58;19.90;99.50
8463;DHT22;4268;52.506;13.462;2023-09-07T00:18:24;19.90;99.50
8463;DHT22;4268;52.506;13.462;2023-09-07T00:20:50;19.90;99.50
8463;DHT22;4268;52.506;13.462;2023-09-07T00:23:15;20.00;99.60
8463;DHT22;4268;52.506;13.462;2023-09-07T00:25:41;19.30;99.30
8463;DHT22;4268;52.506;13.462;2023-09-07T00:28:07;19.80;99.70
8463;DHT22;4268;52.506;13.462;2023-09-07T00:30:32;20.20;99.90
8463;DHT22;4268;52.506;13.462;2023-09-07T00:32:57;19.70;99.90
8463;DHT22;4268;52.506;13.462;2023-09-07T00:35:23;19.60;99.90
8463;DHT22;4268;52.506;13.462;2023-09-07T00:37:48;19.70;99.90
8463;DHT22;4268;52.506;13.462;2023-09-07T00:40:14;19.60;99.90
8463;DHT22;4268;52.506;13.462;2023-09-07T00:42:39;19.50;99.90
8463;DHT22;4268;52.506;13.462;2023-09-07T00:45:07;19.50;99.90
8463;DHT22;4268;52.506;13.462;2023-09-07T00:47:34;19.60;99.90
8463;DHT22;4268;52.506;13.462;2023-09-07T00:50:00;19.40;99.90
8463;DHT22;4268;52.506;13.462;2023-09-07T00:52:26;19.30;99.90
8463;DHT22;4268;52.506;13.462;2023-09-07T00:54:52;19.30;99.90
8463;DHT22;4268;52.506;13.462;2023-09-07T00:57:17;19.40;99.90
8463;DHT22;4268;52.506;13.462;2023-09-07T00:59:43;19.30;99.90
8463;DHT22;4268;52.506;13.462;2023-09-07T01:02:08;19.10;99.90
8463;DHT22;4268;52.506;13.462;2023-09-07T01:04:34;19.10;99.90
8463;DHT22;4268;52.506;13.462;2023-09-07T01:07:12;19.10;99.90
8463;DHT22;4268;52.506;13.462;2023-09-07T01:09:40;19.10;99.90
8463;DHT22;4268;52.506;13.462;2023-09-07T01:12:07;19.10;99.90
8463;DHT22;4268;52.506;13.462;2023-09-07T01:14:36;19.00;99.90
8463;DHT22;4268;52.506;13.462;2023-09-07T01:17:03;19.00;99.90
8463;DHT22;4268;52.506;13.462;2023-09-07T01:19:29;19.00;99.90
8463;DHT22;4268;52.506;13.462;2023-09-07T01:21:54;19.00;99.90
8463;DHT22;4268;52.506;13.462;2023-09-07T01:24:20;18.60;99.90
8463;DHT22;4268;52.506;13.462;2023-09-07T01:26:47;18.90;99.90
8463;DHT22;4268;52.506;13.462;2023-09-07T01:29:15;18.90;99.90
8463;DHT22;4268;52.506;13.462;2023-09-07T01:31:42;18.90;99.90
8463;DHT22;4268;52.506;13.462;2023-09-07T01:34:07;18.80;99.90
8463;DHT22;4268;52.506;13.462;2023-09-07T01:36:34;18.80;99.90
8463;DHT22;4268;52.506;13.462;2023-09-07T01:38:59;18.80;99.90
8463;DHT22;4268;52.506;13.462;2023-09-07T01:41:24;18.80;99.90
8463;DHT22;4268;52.506;13.462;2023-09-07T01:43:50;18.80;99.90
8463;DHT22;4268;52.506;13.462;2023-09-07T01:46:16;18.80;99.90
8463;DHT22;4268;52.506;13.462;2023-09-07T01:48:41;18.80;99.90
8463;DHT22;4268;52.506;13.462;2023-09-07T01:51:07;18.70;99.90
8463;DHT22;4268;52.506;13.462;2023-09-07T01:53:33;18.70;99.90
8463;DHT22;4268;52.506;13.462;2023-09-07T01:55:58;18.70;99.90
8463;DHT22;4268;52.506;13.462;2023-09-07T01:58:24;19.50;99.90
8463;DHT22;4268;52.506;13.462;2023-09-07T02:00:50;18.60;99.90
8463;DHT22;4268;52.506;13.462;2023-09-07T02:03:15;18.60;99.90
8463;DHT22;4268;52.506;13.462;2023-09-07T02:05:41;18.50;99.90
8463;DHT22;4268;52.506;13.462;2023-09-07T02:08:06;19.00;99.90
8463;DHT22;4268;52.506;13.462;2023-09-07T02:10:33;18.40;99.90
8463;DHT22;4268;52.506;13.462;2023-09-07T02:12:59;18.50;99.90
8463;DHT22;4268;52.506;13.462;2023-09-07T02:15:24;18.60;99.90
8463;DHT22;4268;52.506;13.462;2023-09-07T02:17:50;18.50;99.90
8463;DHT22;4268;52.506;13.462;2023-09-07T02:20:15;18.40;99.90
8463;DHT22;4268;52.506;13.462;2023-09-07T02:22:41;18.40;99.90
8463;DHT22;4268;52.506;13.462;2023-09-07T02:25:06;18.40;99.90
8463;DHT22;4268;52.506;13.462;2023-09-07T02:27:34;18.40;99.90
8463;DHT22;4268;52.506;13.462;2023-09-07T02:30:00;18.40;99.90
8463;DHT22;4268;52.506;13.462;2023-09-07T02:32:27;18.30;99.90
8463;DHT22;4268;52.506;13.462;2023-09-07T02:34:54;18.30;99.90
8463;DHT22;4268;52.506;13.462;2023-09-07T02:37:19;18.30;99.90
8463;DHT22;4268;52.506;13.462;2023-09-07T02:39:45;18.30;99.90
8463;DHT22;4268;52.506;13.462;2023-09-07T02:42:10;18.30;99.90
8463;DHT22;4268;52.506;13.462;2023-09-07T02:44:36;18.20;99.90
8463;DHT22;4268;52.506;13.462;2023-09-07T02:47:01;18.30;99.90
8463;DHT22;4268;52.506;13.462;2023-09-07T02:49:27;17.40;99.90
8463;DHT22;4268;52.506;13.462;2023-09-07T02:51:52;18.20;99.90
8463;DHT22;4268;52.506;13.462;2023-09-07T02:54:18;17.40;99.90
8463;DHT22;4268;52.506;13.462;2023-09-07T02:56:43;18.10;99.90
8463;DHT22;4268;52.506;13.462;2023-09-07T02:59:09;18.10;99.90
8463;DHT22;4268;52.506;13.462;2023-09-07T03:01:34;17.40;99.90
8463;DHT22;4268;52.506;13.462;2023-09-07T03:04:00;18.20;99.90
8463;DHT22;4268;52.506;13.462;2023-09-07T03:06:25;18.20;99.90
8463;DHT22;4268;52.506;13.462;2023-09-07T03:08:51;18.10;99.90
8463;DHT22;4268;52.506;13.462;2023-09-07T03:11:17;18.10;99.90
8463;DHT22;4268;52.506;13.462;2023-09-07T03:13:43;18.10;99.90
8463;DHT22;4268;52.506;13.462;2023-09-07T03:16:09;18.10;99.90
8463;DHT22;4268;52.506;13.462;2023-09-07T03:18:34;17.60;99.90
8463;DHT22;4268;52.506;13.462;2023-09-07T03:21:01;18.00;99.90
8463;DHT22;4268;52.506;13.462;2023-09-07T03:23:28;17.90;99.90
8463;DHT22;4268;52.506;13.462;2023-09-07T03:25:53;17.90;99.90
8463;DHT22;4268;52.506;13.462;2023-09-07T03:28:19;17.70;99.90
8463;DHT22;4268;52.506;13.462;2023-09-07T03:30:44;17.90;99.90
8463;DHT22;4268;52.506;13.462;2023-09-07T03:33:10;17.90;99.90
8463;DHT22;4268;52.506;13.462;2023-09-07T03:35:35;17.90;99.90
8463;DHT22;4268;52.506;13.462;2023-09-07T03:38:01;17.70;99.90
8463;DHT22;4268;52.506;13.462;2023-09-07T03:40:27;17.80;99.90
8463;DHT22;4268;52.506;13.462;2023-09-07T03:42:52;18.80;99.90
8463;DHT22;4268;52.506;13.462;2023-09-07T03:45:18;17.60;99.90
8463;DHT22;4268;52.506;13.462;2023-09-07T03:47:43;17.80;99.90
8463;DHT22;4268;52.506;13.462;2023-09-07T03:50:09;18.20;99.90
8463;DHT22;4268;52.506;13.462;2023-09-07T03:52:35;17.70;99.90
8463;DHT22;4268;52.506;13.462;2023-09-07T03:55:01;17.60;99.90
8463;DHT22;4268;52.506;13.462;2023-09-07T03:57:27;18.00;99.90
8463;DHT22;4268;52.506;13.462;2023-09-07T03:59:53;18.30;99.90
8463;DHT22;4268;52.506;13.462;2023-09-07T04:02:21;18.00;99.90
8463;DHT22;4268;52.506;13.462;2023-09-07T04:04:50;17.80;99.90
8463;DHT22;4268;52.506;13.462;2023-09-07T04:07:16;17.90;99.90
8463;DHT22;4268;52.506;13.462;2023-09-07T04:09:43;17.80;99.90
8463;DHT22;4268;52.506;13.462;2023-09-07T04:12:09;17.80;99.90
8463;DHT22;4268;52.506;13.462;2023-09-07T04:14:34;17.70;99.90
8463;DHT22;4268;52.506;13.462;2023-09-07T04:17:00;17.70;99.90
8463;DHT22;4268;52.506;13.462;2023-09-07T04:19:26;17.60;99.90
8463;DHT22;4268;52.506;13.462;2023-09-07T04:21:51;17.70;99.90
8463;DHT22;4268;52.506;13.462;2023-09-07T04:24:17;17.60;99.90
8463;DHT22;4268;52.506;13.462;2023-09-07T04:26:42;17.60;99.90
8463;DHT22;4268;52.506;13.462;2023-09-07T04:29:08;17.60;99.90
8463;DHT22;4268;52.506;13.462;2023-09-07T04:31:34;17.60;99.90
8463;DHT22;4268;52.506;13.462;2023-09-07T04:34:00;17.60;99.90
8463;DHT22;4268;52.506;13.462;2023-09-07T04:36:25;17.60;99.90
8463;DHT22;4268;52.506;13.462;2023-09-07T04:38:51;17.70;99.90
8463;DHT22;4268;52.506;13.462;2023-09-07T04:41:16;16.90;99.90
8463;DHT22;4268;52.506;13.462;2023-09-07T04:43:43;17.70;99.90
8463;DHT22;4268;52.506;13.462;2023-09-07T04:46:09;17.70;99.90
8463;DHT22;4268;52.506;13.462;2023-09-07T04:48:35;17.70;99.90
8463;DHT22;4268;52.506;13.462;2023-09-07T04:51:02;17.70;99.90
8463;DHT22;4268;52.506;13.462;2023-09-07T04:53:29;17.80;99.90
8463;DHT22;4268;52.506;13.462;2023-09-07T04:55:56;18.00;99.90
8463;DHT22;4268;52.506;13.462;2023-09-07T04:58:21;17.90;99.90
8463;DHT22;4268;52.506;13.462;2023-09-07T05:00:47;17.70;99.90
8463;DHT22;4268;52.506;13.462;2023-09-07T05:03:13;17.90;99.90
8463;DHT22;4268;52.506;13.462;2023-09-07T05:05:39;17.90;99.90
8463;DHT22;4268;52.506;13.462;2023-09-07T05:08:05;17.80;99.90
8463;DHT22;4268;52.506;13.462;2023-09-07T05:10:33;17.90;99.90
8463;DHT22;4268;52.506;13.462;2023-09-07T05:12:59;17.90;99.90
8463;DHT22;4268;52.506;13.462;2023-09-07T05:15:24;18.00;99.90
8463;DHT22;4268;52.506;13.462;2023-09-07T05:17:50;18.10;99.90
8463;DHT22;4268;52.506;13.462;2023-09-07T05:20:15;18.20;99.90
8463;DHT22;4268;52.506;13.462;2023-09-07T05:22:41;18.20;99.90
8463;DHT22;4268;52.506;13.462;2023-09-07T05:25:07;18.20;99.90
8463;DHT22;4268;52.506;13.462;2023-09-07T05:27:37;18.30;99.90
8463;DHT22;4268;52.506;13.462;2023-09-07T05:30:03;18.30;99.90
8463;DHT22;4268;52.506;13.462;2023-09-07T05:32:29;18.30;99.90
8463;DHT22;4268;52.506;13.462;2023-09-07T05:34:54;18.40;99.90
8463;DHT22;4268;52.506;13.462;2023-09-07T05:37:20;18.40;99.90
8463;DHT22;4268;52.506;13.462;2023-09-07T05:39:45;18.50;99.90
8463;DHT22;4268;52.506;13.462;2023-09-07T05:42:11;18.50;99.90
8463;DHT22;4268;52.506;13.462;2023-09-07T05:44:37;18.70;99.90
8463;DHT22;4268;52.506;13.462;2023-09-07T05:47:03;18.70;99.90
8463;DHT22;4268;52.506;13.462;2023-09-07T05:49:29;18.70;99.90
8463;DHT22;4268;52.506;13.462;2023-09-07T05:51:55;18.80;99.90
8463;DHT22;4268;52.506;13.462;2023-09-07T05:54:20;18.90;99.90
8463;DHT22;4268;52.506;13.462;2023-09-07T05:56:46;19.00;99.90
8463;DHT22;4268;52.506;13.462;2023-09-07T05:59:11;19.00;99.90
8463;DHT22;4268;52.506;13.462;2023-09-07T06:01:38;19.50;99.90
8463;DHT22;4268;52.506;13.462;2023-09-07T06:04:04;19.10;99.90
8463;DHT22;4268;52.506;13.462;2023-09-07T06:06:30;19.20;99.90
8463;DHT22;4268;52.506;13.462;2023-09-07T06:08:56;19.20;99.90
8463;DHT22;4268;52.506;13.462;2023-09-07T06:11:21;19.10;99.90
8463;DHT22;4268;52.506;13.462;2023-09-07T06:13:48;19.50;99.90
8463;DHT22;4268;52.506;13.462;2023-09-07T06:16:14;19.60;99.90
8463;DHT22;4268;52.506;13.462;2023-09-07T06:18:40;19.60;99.90
8463;DHT22;4268;52.506;13.462;2023-09-07T06:21:05;19.70;99.90
8463;DHT22;4268;52.506;13.462;2023-09-07T06:23:31;19.90;99.90
8463;DHT22;4268;52.506;13.462;2023-09-07T06:25:57;20.30;99.90
8463;DHT22;4268;52.506;13.462;2023-09-07T06:28:22;20.50;99.90
8463;DHT22;4268;52.506;13.462;2023-09-07T06:30:48;20.80;99.90
8463;DHT22;4268;52.506;13.462;2023-09-07T06:33:13;21.50;99.90
8463;DHT22;4268;52.506;13.462;2023-09-07T06:35:39;23.00;99.90
8463;DHT22;4268;52.506;13.462;2023-09-07T06:38:04;25.10;96.20
8463;DHT22;4268;52.506;13.462;2023-09-07T06:40:30;27.00;92.10
8463;DHT22;4268;52.506;13.462;2023-09-07T06:42:56;28.60;86.10
8463;DHT22;4268;52.506;13.462;2023-09-07T06:45:22;29.80;80.60
8463;DHT22;4268;52.506;13.462;2023-09-07T06:47:50;31.00;75.20
8463;DHT22;4268;52.506;13.462;2023-09-07T06:50:15;32.20;69.50
8463;DHT22;4268;52.506;13.462;2023-09-07T06:52:41;32.20;69.10
8463;DHT22;4268;52.506;13.462;2023-09-07T06:55:06;32.70;67.00
8463;DHT22;4268;52.506;13.462;2023-09-07T06:57:32;33.80;64.20
8463;DHT22;4268;52.506;13.462;2023-09-07T06:59:59;34.10;62.10
8463;DHT22;4268;52.506;13.462;2023-09-07T07:02:25;34.40;61.10
8463;DHT22;4268;52.506;13.462;2023-09-07T07:04:50;34.40;60.30
8463;DHT22;4268;52.506;13.462;2023-09-07T07:07:17;34.50;59.70
8463;DHT22;4268;52.506;13.462;2023-09-07T07:09:42;34.30;59.60
8463;DHT22;4268;52.506;13.462;2023-09-07T07:12:08;34.40;59.00
8463;DHT22;4268;52.506;13.462;2023-09-07T07:14:33;34.30;58.60
8463;DHT22;4268;52.506;13.462;2023-09-07T07:16:59;34.10;59.20
8463;DHT22;4268;52.506;13.462;2023-09-07T07:19:27;34.60;58.30
8463;DHT22;4268;52.506;13.462;2023-09-07T07:21:52;35.10;57.10
8463;DHT22;4268;52.506;13.462;2023-09-07T07:24:18;34.90;57.50
8463;DHT22;4268;52.506;13.462;2023-09-07T07:26:44;35.00;57.20
8463;DHT22;4268;52.506;13.462;2023-09-07T07:29:09;35.30;56.70
8463;DHT22;4268;52.506;13.462;2023-09-07T07:31:35;35.40;55.50
8463;DHT22;4268;52.506;13.462;2023-09-07T07:34:01;35.80;55.20
8463;DHT22;4268;52.506;13.462;2023-09-07T07:36:27;35.90;54.90
8463;DHT22;4268;52.506;13.462;2023-09-07T07:38:52;36.10;53.70
8463;DHT22;4268;52.506;13.462;2023-09-07T07:41:17;35.50;54.80
8463;DHT22;4268;52.506;13.462;2023-09-07T07:43:43;35.10;55.00
8463;DHT22;4268;52.506;13.462;2023-09-07T07:46:08;34.60;55.30
8463;DHT22;4268;52.506;13.462;2023-09-07T07:48:34;34.40;55.80
8463;DHT22;4268;52.506;13.462;2023-09-07T07:51:03;34.20;56.60
8463;DHT22;4268;52.506;13.462;2023-09-07T07:53:28;34.40;56.70
8463;DHT22;4268;52.506;13.462;2023-09-07T07:58:35;34.80;56.20
8463;DHT22;4268;52.506;13.462;2023-09-07T08:01:01;35.10;55.50
8463;DHT22;4268;52.506;13.462;2023-09-07T08:03:27;35.40;54.90
8463;DHT22;4268;52.506;13.462;2023-09-07T08:05:52;35.40;54.90
8463;DHT22;4268;52.506;13.462;2023-09-07T08:08:18;35.50;54.20
8463;DHT22;4268;52.506;13.462;2023-09-07T08:10:44;34.90;54.40
8463;DHT22;4268;52.506;13.462;2023-09-07T08:13:12;33.90;56.40
8463;DHT22;4268;52.506;13.462;2023-09-07T08:15:38;33.10;57.80
8463;DHT22;4268;52.506;13.462;2023-09-07T08:18:04;32.10;59.50
8463;DHT22;4268;52.506;13.462;2023-09-07T08:20:32;31.60;60.20
8463;DHT22;4268;52.506;13.462;2023-09-07T08:22:57;31.10;61.20
8463;DHT22;4268;52.506;13.462;2023-09-07T08:25:23;30.50;62.30
8463;DHT22;4268;52.506;13.462;2023-09-07T08:27:49;30.00;63.90
8463;DHT22;4268;52.506;13.462;2023-09-07T08:30:16;29.40;65.40
8463;DHT22;4268;52.506;13.462;2023-09-07T08:32:43;28.90;66.60
8463;DHT22;4268;52.506;13.462;2023-09-07T08:35:09;28.40;66.70
8463;DHT22;4268;52.506;13.462;2023-09-07T08:37:38;28.00;68.70
8463;DHT22;4268;52.506;13.462;2023-09-07T08:40:04;27.60;70.40
8463;DHT22;4268;52.506;13.462;2023-09-07T08:42:30;27.40;71.00
8463;DHT22;4268;52.506;13.462;2023-09-07T08:44:57;27.20;71.80
8463;DHT22;4268;52.506;13.462;2023-09-07T08:47:26;26.90;72.40
8463;DHT22;4268;52.506;13.462;2023-09-07T08:49:54;26.70;72.50
8463;DHT22;4268;52.506;13.462;2023-09-07T08:52:21;26.50;72.80
8463;DHT22;4268;52.506;13.462;2023-09-07T08:54:48;26.30;74.20
8463;DHT22;4268;52.506;13.462;2023-09-07T08:57:14;26.10;74.00
8463;DHT22;4268;52.506;13.462;2023-09-07T08:59:40;26.00;75.60
8463;DHT22;4268;52.506;13.462;2023-09-07T09:02:11;25.90;75.40
8463;DHT22;4268;52.506;13.462;2023-09-07T09:04:37;25.80;73.50
8463;DHT22;4268;52.506;13.462;2023-09-07T09:07:02;25.80;75.20
8463;DHT22;4268;52.506;13.462;2023-09-07T09:09:29;25.80;75.20
8463;DHT22;4268;52.506;13.462;2023-09-07T09:12:06;25.90;75.30
8463;DHT22;4268;52.506;13.462;2023-09-07T09:14:31;25.90;75.30
8463;DHT22;4268;52.506;13.462;2023-09-07T09:16:57;25.90;74.00
8463;DHT22;4268;52.506;13.462;2023-09-07T09:19:32;25.90;73.90
8463;DHT22;4268;52.506;13.462;2023-09-07T09:21:58;25.90;73.50
8463;DHT22;4268;52.506;13.462;2023-09-07T09:24:24;25.90;71.90
8463;DHT22;4268;52.506;13.462;2023-09-07T09:26:49;25.90;72.40
8463;DHT22;4268;52.506;13.462;2023-09-07T09:29:15;25.90;73.10
8463;DHT22;4268;52.506;13.462;2023-09-07T09:31:41;26.00;73.20
8463;DHT22;4268;52.506;13.462;2023-09-07T09:34:06;26.00;72.20
8463;DHT22;4268;52.506;13.462;2023-09-07T09:36:36;26.10;72.40
8463;DHT22;4268;52.506;13.462;2023-09-07T09:39:02;26.20;71.00
8463;DHT22;4268;52.506;13.462;2023-09-07T09:41:31;26.30;70.90
8463;DHT22;4268;52.506;13.462;2023-09-07T09:43:58;26.40;69.90
8463;DHT22;4268;52.506;13.462;2023-09-07T09:46:25;26.50;70.00
8463;DHT22;4268;52.506;13.462;2023-09-07T09:48:51;26.50;70.20
8463;DHT22;4268;52.506;13.462;2023-09-07T09:51:18;26.70;70.30
8463;DHT22;4268;52.506;13.462;2023-09-07T09:53:44;26.70;69.40
8463;DHT22;4268;52.506;13.462;2023-09-07T09:56:10;26.70;69.30
8463;DHT22;4268;52.506;13.462;2023-09-07T09:58:37;26.80;66.60
8463;DHT22;4268;52.506;13.462;2023-09-07T10:01:04;29.30;68.80
8463;DHT22;4268;52.506;13.462;2023-09-07T10:03:37;26.70;66.90
8463;DHT22;4268;52.506;13.462;2023-09-07T10:06:11;26.70;67.20
8463;DHT22;4268;52.506;13.462;2023-09-07T10:08:37;26.80;66.40
8463;DHT22;4268;52.506;13.462;2023-09-07T10:11:09;26.80;65.70
8463;DHT22;4268;52.506;13.462;2023-09-07T10:13:35;26.70;65.10
8463;DHT22;4268;52.506;13.462;2023-09-07T10:16:01;26.70;65.60
8463;DHT22;4268;52.506;13.462;2023-09-07T10:18:34;26.70;66.40
8463;DHT22;4268;52.506;13.462;2023-09-07T10:21:00;26.80;66.30
8463;DHT22;4268;52.506;13.462;2023-09-07T10:23:39;26.80;66.70
8463;DHT22;4268;52.506;13.462;2023-09-07T10:26:05;26.90;66.90
8463;DHT22;4268;52.506;13.462;2023-09-07T10:28:35;27.00;66.70
8463;DHT22;4268;52.506;13.462;2023-09-07T10:31:18;27.00;65.60
8463;DHT22;4268;52.506;13.462;2023-09-07T10:33:44;27.10;66.80
8463;DHT22;4268;52.506;13.462;2023-09-07T10:36:24;27.20;65.60
8463;DHT22;4268;52.506;13.462;2023-09-07T10:38:51;27.20;63.30
8463;DHT22;4268;52.506;13.462;2023-09-07T10:41:20;27.20;62.90
8463;DHT22;4268;52.506;13.462;2023-09-07T10:43:50;27.20;62.60
8463;DHT22;4268;52.506;13.462;2023-09-07T10:46:20;27.30;61.20
8463;DHT22;4268;52.506;13.462;2023-09-07T10:48:49;27.30;61.40
8463;DHT22;4268;52.506;13.462;2023-09-07T10:51:15;27.30;62.00
8463;DHT22;4268;52.506;13.462;2023-09-07T10:53:41;27.30;61.80
8463;DHT22;4268;52.506;13.462;2023-09-07T10:56:07;27.40;62.20
8463;DHT22;4268;52.506;13.462;2023-09-07T10:58:34;27.40;61.60
8463;DHT22;4268;52.506;13.462;2023-09-07T11:01:00;27.40;61.80
8463;DHT22;4268;52.506;13.462;2023-09-07T11:03:27;27.50;62.40
8463;DHT22;4268;52.506;13.462;2023-09-07T11:05:59;27.50;61.50
8463;DHT22;4268;52.506;13.462;2023-09-07T11:08:25;27.50;62.10
8463;DHT22;4268;52.506;13.462;2023-09-07T11:10:51;27.60;61.60
8463;DHT22;4268;52.506;13.462;2023-09-07T11:13:17;27.50;61.40
8463;DHT22;4268;52.506;13.462;2023-09-07T11:15:43;27.40;61.90
8463;DHT22;4268;52.506;13.462;2023-09-07T11:18:09;27.40;61.70
8463;DHT22;4268;52.506;13.462;2023-09-07T11:20:36;27.30;61.50
8463;DHT22;4268;52.506;13.462;2023-09-07T11:23:02;27.30;60.80
8463;DHT22;4268;52.506;13.462;2023-09-07T11:25:34;27.70;61.40
8463;DHT22;4268;52.506;13.462;2023-09-07T11:28:02;27.40;62.10
8463;DHT22;4268;52.506;13.462;2023-09-07T11:30:28;27.50;60.20
8463;DHT22;4268;52.506;13.462;2023-09-07T11:33:21;27.60;61.00
8463;DHT22;4268;52.506;13.462;2023-09-07T11:35:47;27.60;61.20
8463;DHT22;4268;52.506;13.462;2023-09-07T11:38:14;27.80;61.20
8463;DHT22;4268;52.506;13.462;2023-09-07T11:40:42;27.80;61.40
8463;DHT22;4268;52.506;13.462;2023-09-07T11:43:10;27.80;61.30
8463;DHT22;4268;52.506;13.462;2023-09-07T11:45:36;27.80;61.30
8463;DHT22;4268;52.506;13.462;2023-09-07T11:48:01;27.80;61.50
8463;DHT22;4268;52.506;13.462;2023-09-07T11:50:27;27.80;61.40
8463;DHT22;4268;52.506;13.462;2023-09-07T11:52:55;27.80;61.10
8463;DHT22;4268;52.506;13.462;2023-09-07T11:55:21;27.90;60.70
8463;DHT22;4268;52.506;13.462;2023-09-07T11:57:47;27.90;61.00
8463;DHT22;4268;52.506;13.462;2023-09-07T12:00:13;27.90;61.40
8463;DHT22;4268;52.506;13.462;2023-09-07T12:02:40;28.00;59.90
8463;DHT22;4268;52.506;13.462;2023-09-07T12:05:06;28.10;61.10
8463;DHT22;4268;52.506;13.462;2023-09-07T12:07:34;28.10;61.20
8463;DHT22;4268;52.506;13.462;2023-09-07T12:10:00;28.10;61.90
8463;DHT22;4268;52.506;13.462;2023-09-07T12:12:26;28.10;60.90
8463;DHT22;4268;52.506;13.462;2023-09-07T12:14:51;28.10;59.80
8463;DHT22;4268;52.506;13.462;2023-09-07T12:17:17;28.10;59.70
8463;DHT22;4268;52.506;13.462;2023-09-07T12:19:45;28.10;59.60
8463;DHT22;4268;52.506;13.462;2023-09-07T12:22:11;28.10;58.50
8463;DHT22;4268;52.506;13.462;2023-09-07T12:24:37;28.10;58.40
8463;DHT22;4268;52.506;13.462;2023-09-07T12:27:02;28.10;58.70
8463;DHT22;4268;52.506;13.462;2023-09-07T12:29:28;28.10;57.30
8463;DHT22;4268;52.506;13.462;2023-09-07T12:31:53;28.10;58.10
8463;DHT22;4268;52.506;13.462;2023-09-07T12:34:19;28.10;57.80
8463;DHT22;4268;52.506;13.462;2023-09-07T12:36:44;28.20;58.20
8463;DHT22;4268;52.506;13.462;2023-09-07T12:39:10;28.20;57.50
8463;DHT22;4268;52.506;13.462;2023-09-07T12:41:38;28.10;57.80
8463;DHT22;4268;52.506;13.462;2023-09-07T12:44:04;28.10;58.60
8463;DHT22;4268;52.506;13.462;2023-09-07T12:46:30;28.10;59.20
8463;DHT22;4268;52.506;13.462;2023-09-07T12:48:55;28.10;59.20
8463;DHT22;4268;52.506;13.462;2023-09-07T12:51:21;28.10;58.50
8463;DHT22;4268;52.506;13.462;2023-09-07T12:53:46;28.20;58.80
8463;DHT22;4268;52.506;13.462;2023-09-07T12:56:12;28.20;59.50
8463;DHT22;4268;52.506;13.462;2023-09-07T12:58:38;28.20;60.00
8463;DHT22;4268;52.506;13.462;2023-09-07T13:01:04;28.20;60.10
8463;DHT22;4268;52.506;13.462;2023-09-07T13:03:30;28.20;60.40
8463;DHT22;4268;52.506;13.462;2023-09-07T13:05:55;28.20;61.10
8463;DHT22;4268;52.506;13.462;2023-09-07T13:08:21;28.20;61.20
8463;DHT22;4268;52.506;13.462;2023-09-07T13:10:46;28.20;60.90
8463;DHT22;4268;52.506;13.462;2023-09-07T13:13:12;28.20;60.80
8463;DHT22;4268;52.506;13.462;2023-09-07T13:15:37;28.20;61.00
8463;DHT22;4268;52.506;13.462;2023-09-07T13:18:04;28.20;61.00
8463;DHT22;4268;52.506;13.462;2023-09-07T13:20:30;28.20;61.10
8463;DHT22;4268;52.506;13.462;2023-09-07T13:22:56;28.20;61.40
8463;DHT22;4268;52.506;13.462;2023-09-07T13:25:22;28.30;61.40
8463;DHT22;4268;52.506;13.462;2023-09-07T13:27:48;28.30;60.80
8463;DHT22;4268;52.506;13.462;2023-09-07T13:30:14;28.40;60.50
8463;DHT22;4268;52.506;13.462;2023-09-07T13:32:40;28.40;60.50
8463;DHT22;4268;52.506;13.462;2023-09-07T13:35:05;28.30;60.40
8463;DHT22;4268;52.506;13.462;2023-09-07T13:37:31;28.30;60.40
8463;DHT22;4268;52.506;13.462;2023-09-07T13:39:56;28.30;60.40
8463;DHT22;4268;52.506;13.462;2023-09-07T13:42:22;28.20;59.80
8463;DHT22;4268;52.506;13.462;2023-09-07T13:44:47;28.10;59.00
8463;DHT22;4268;52.506;13.462;2023-09-07T13:47:15;28.10;59.40
8463;DHT22;4268;52.506;13.462;2023-09-07T13:49:40;28.10;59.70
8463;DHT22;4268;52.506;13.462;2023-09-07T13:52:06;28.10;59.60
8463;DHT22;4268;52.506;13.462;2023-09-07T13:54:31;28.10;60.00
8463;DHT22;4268;52.506;13.462;2023-09-07T13:56:56;28.10;60.20
8463;DHT22;4268;52.506;13.462;2023-09-07T13:59:22;28.20;60.40
8463;DHT22;4268;52.506;13.462;2023-09-07T14:01:47;28.20;60.00
8463;DHT22;4268;52.506;13.462;2023-09-07T14:04:14;28.20;59.60
8463;DHT22;4268;52.506;13.462;2023-09-07T14:06:40;28.10;59.50
8463;DHT22;4268;52.506;13.462;2023-09-07T14:09:05;28.10;60.00
8463;DHT22;4268;52.506;13.462;2023-09-07T14:11:32;28.20;60.10
8463;DHT22;4268;52.506;13.462;2023-09-07T14:13:58;28.20;59.90
8463;DHT22;4268;52.506;13.462;2023-09-07T14:16:24;28.10;60.10
8463;DHT22;4268;52.506;13.462;2023-09-07T14:18:49;28.10;60.00
8463;DHT22;4268;52.506;13.462;2023-09-07T14:21:16;28.10;60.20
8463;DHT22;4268;52.506;13.462;2023-09-07T14:23:42;28.10;60.00
8463;DHT22;4268;52.506;13.462;2023-09-07T14:26:08;28.10;60.80
8463;DHT22;4268;52.506;13.462;2023-09-07T14:28:34;28.10;60.30
8463;DHT22;4268;52.506;13.462;2023-09-07T14:30:59;28.10;60.60
8463;DHT22;4268;52.506;13.462;2023-09-07T14:33:28;28.10;60.50
8463;DHT22;4268;52.506;13.462;2023-09-07T14:35:54;28.10;60.20
8463;DHT22;4268;52.506;13.462;2023-09-07T14:38:20;28.10;60.00
8463;DHT22;4268;52.506;13.462;2023-09-07T14:40:46;28.00;60.20
8463;DHT22;4268;52.506;13.462;2023-09-07T14:43:14;28.10;60.70
8463;DHT22;4268;52.506;13.462;2023-09-07T14:45:39;28.10;60.80
8463;DHT22;4268;52.506;13.462;2023-09-07T14:48:05;28.10;60.30
8463;DHT22;4268;52.506;13.462;2023-09-07T14:50:30;28.10;60.60
8463;DHT22;4268;52.506;13.462;2023-09-07T14:52:56;28.10;60.20
8463;DHT22;4268;52.506;13.462;2023-09-07T14:55:21;28.00;60.60
8463;DHT22;4268;52.506;13.462;2023-09-07T14:57:47;28.00;61.00
8463;DHT22;4268;52.506;13.462;2023-09-07T15:00:13;27.90;61.20
8463;DHT22;4268;52.506;13.462;2023-09-07T15:02:38;27.90;60.40
8463;DHT22;4268;52.506;13.462;2023-09-07T15:05:04;27.90;60.10
8463;DHT22;4268;52.506;13.462;2023-09-07T15:07:29;27.90;60.40
8463;DHT22;4268;52.506;13.462;2023-09-07T15:09:55;27.90;60.40
8463;DHT22;4268;52.506;13.462;2023-09-07T15:12:20;27.90;59.70
8463;DHT22;4268;52.506;13.462;2023-09-07T15:14:46;27.90;59.40
8463;DHT22;4268;52.506;13.462;2023-09-07T15:17:12;27.90;59.30
8463;DHT22;4268;52.506;13.462;2023-09-07T15:19:39;27.90;59.50
8463;DHT22;4268;52.506;13.462;2023-09-07T15:22:05;27.90;59.50
8463;DHT22;4268;52.506;13.462;2023-09-07T15:24:30;27.80;60.00
8463;DHT22;4268;52.506;13.462;2023-09-07T15:26:56;27.90;60.80
8463;DHT22;4268;52.506;13.462;2023-09-07T15:29:21;27.90;61.00
8463;DHT22;4268;52.506;13.462;2023-09-07T15:31:47;28.20;60.90
8463;DHT22;4268;52.506;13.462;2023-09-07T15:34:12;28.10;60.00
8463;DHT22;4268;52.506;13.462;2023-09-07T15:36:38;28.00;60.40
8463;DHT22;4268;52.506;13.462;2023-09-07T15:39:04;27.90;60.90
8463;DHT22;4268;52.506;13.462;2023-09-07T15:41:30;27.90;61.10